sensor_id;sensor_type;location;lat;lon;timestamp;temperature;humidity
22532;DHT22;11432;46.924;7.114;2023-08-12T00:01:35;21.70;80.70
22532;DHT22;11432;46.924;7.114;2023-08-12T00:04:00;21.60;86.40
22532;DHT22;11432;46.924;7.114;2023-08-12T00:06:26;21.60;92.10
22532;DHT22;11432;46.924;7.114;2023-08-12T00:08:51;21.50;78.70
22532;DHT22;11432;46.924;7.114;2023-08-12T00:11:17;21.50;99.90
22532;DHT22;11432;46.924;7.114;2023-08-12T00:13:43;21.50;99.90
22532;DHT22;11432;46.924;7.114;2023-08-12T00:16:08;21.60;99.90
22532;DHT22;11432;46.924;7.114;2023-08-12T00:18:34;21.60;99.90
22532;DHT22;11432;46.924;7.114;2023-08-12T00:21:08;21.50;99.90
22532;DHT22;11432;46.924;7.114;2023-08-12T00:23:39;21.50;99.90
22532;DHT22;11432;46.924;7.114;2023-08-12T00:26:09;21.50;99.90
22532;DHT22;11432;46.924;7.114;2023-08-12T00:28:35;21.40;99.90
22532;DHT22;11432;46.924;7.114;2023-08-12T00:31:01;21.30;99.90
22532;DHT22;11432;46.924;7.114;2023-08-12T00:33:26;21.30;99.90
22532;DHT22;11432;46.924;7.114;2023-08-12T00:35:52;21.40;99.90
22532;DHT22;11432;46.924;7.114;2023-08-12T00:38:18;21.40;99.90
22532;DHT22;11432;46.924;7.114;2023-08-12T00:40:43;21.50;99.90
22532;DHT22;11432;46.924;7.114;2023-08-12T00:43:09;21.30;99.90
22532;DHT22;11432;46.924;7.114;2023-08-12T00:45:35;21.20;99.90
22532;DHT22;11432;46.924;7.114;2023-08-12T00:48:02;21.10;99.90
22532;DHT22;11432;46.924;7.114;2023-08-12T00:50:28;21.10;99.90
22532;DHT22;11432;46.924;7.114;2023-08-12T00:52:54;21.10;99.90
22532;DHT22;11432;46.924;7.114;2023-08-12T00:55:21;21.00;1.00
22532;DHT22;11432;46.924;7.114;2023-08-12T00:57:46;21.00;99.90
22532;DHT22;11432;46.924;7.114;2023-08-12T01:00:13;21.10;1.00
22532;DHT22;11432;46.924;7.114;2023-08-12T01:02:40;21.20;99.90
22532;DHT22;11432;46.924;7.114;2023-08-12T01:05:06;21.10;99.90
22532;DHT22;11432;46.924;7.114;2023-08-12T01:07:32;21.20;99.90
22532;DHT22;11432;46.924;7.114;2023-08-12T01:09:58;21.20;99.90
22532;DHT22;11432;46.924;7.114;2023-08-12T01:12:30;21.20;99.90
22532;DHT22;11432;46.924;7.114;2023-08-12T01:15:17;21.20;99.90
22532;DHT22;11432;46.924;7.114;2023-08-12T01:17:47;21.20;99.90
22532;DHT22;11432;46.924;7.114;2023-08-12T01:20:17;21.20;99.90
22532;DHT22;11432;46.924;7.114;2023-08-12T01:22:55;21.10;1.00
22532;DHT22;11432;46.924;7.114;2023-08-12T01:25:21;21.10;99.90
22532;DHT22;11432;46.924;7.114;2023-08-12T01:27:47;21.10;99.90
22532;DHT22;11432;46.924;7.114;2023-08-12T01:30:12;21.00;1.00
22532;DHT22;11432;46.924;7.114;2023-08-12T01:32:54;20.90;1.00
22532;DHT22;11432;46.924;7.114;2023-08-12T01:35:25;20.90;1.00
22532;DHT22;11432;46.924;7.114;2023-08-12T01:37:52;21.10;1.00
22532;DHT22;11432;46.924;7.114;2023-08-12T01:40:19;21.30;1.00
22532;DHT22;11432;46.924;7.114;2023-08-12T01:42:45;21.20;1.00
22532;DHT22;11432;46.924;7.114;2023-08-12T01:45:11;21.20;1.00
22532;DHT22;11432;46.924;7.114;2023-08-12T01:47:37;21.10;1.00
22532;DHT22;11432;46.924;7.114;2023-08-12T01:50:03;21.10;1.00
22532;DHT22;11432;46.924;7.114;2023-08-12T01:52:29;21.10;1.00
22532;DHT22;11432;46.924;7.114;2023-08-12T01:54:55;21.20;1.00
22532;DHT22;11432;46.924;7.114;2023-08-12T01:57:21;21.20;1.00
22532;DHT22;11432;46.924;7.114;2023-08-12T01:59:46;21.10;1.00
22532;DHT22;11432;46.924;7.114;2023-08-12T02:02:12;21.10;1.00
22532;DHT22;11432;46.924;7.114;2023-08-12T02:04:39;21.00;1.00
22532;DHT22;11432;46.924;7.114;2023-08-12T02:07:05;20.90;1.00
22532;DHT22;11432;46.924;7.114;2023-08-12T02:09:30;20.80;1.00
22532;DHT22;11432;46.924;7.114;2023-08-12T02:11:57;20.70;1.00
22532;DHT22;11432;46.924;7.114;2023-08-12T02:14:22;20.70;1.00
22532;DHT22;11432;46.924;7.114;2023-08-12T02:16:48;20.50;56.10
22532;DHT22;11432;46.924;7.114;2023-08-12T02:19:14;20.50;5.40
22532;DHT22;11432;46.924;7.114;2023-08-12T02:21:40;20.40;99.90
22532;DHT22;11432;46.924;7.114;2023-08-12T02:24:06;20.40;99.90
22532;DHT22;11432;46.924;7.114;2023-08-12T02:26:32;20.40;95.80
22532;DHT22;11432;46.924;7.114;2023-08-12T02:28:57;20.50;93.10
22532;DHT22;11432;46.924;7.114;2023-08-12T02:31:23;20.60;59.30
22532;DHT22;11432;46.924;7.114;2023-08-12T02:33:48;20.70;1.00
22532;DHT22;11432;46.924;7.114;2023-08-12T02:36:15;20.60;1.00
22532;DHT22;11432;46.924;7.114;2023-08-12T02:38:41;20.50;14.50
22532;DHT22;11432;46.924;7.114;2023-08-12T02:41:06;20.50;99.90
22532;DHT22;11432;46.924;7.114;2023-08-12T02:43:32;20.50;99.90
22532;DHT22;11432;46.924;7.114;2023-08-12T02:45:58;20.60;99.90
22532;DHT22;11432;46.924;7.114;2023-08-12T02:48:23;20.60;99.90
22532;DHT22;11432;46.924;7.114;2023-08-12T02:50:49;20.60;99.90
22532;DHT22;11432;46.924;7.114;2023-08-12T02:53:15;20.60;99.90
22532;DHT22;11432;46.924;7.114;2023-08-12T02:55:41;20.50;99.90
22532;DHT22;11432;46.924;7.114;2023-08-12T02:58:06;20.50;99.90
22532;DHT22;11432;46.924;7.114;2023-08-12T03:00:32;20.40;99.90
22532;DHT22;11432;46.924;7.114;2023-08-12T03:02:58;20.40;99.90
22532;DHT22;11432;46.924;7.114;2023-08-12T03:05:23;20.30;99.90
22532;DHT22;11432;46.924;7.114;2023-08-12T03:07:50;20.30;99.90
22532;DHT22;11432;46.924;7.114;2023-08-12T03:10:17;20.40;99.90
22532;DHT22;11432;46.924;7.114;2023-08-12T03:12:43;20.50;99.90
22532;DHT22;11432;46.924;7.114;2023-08-12T03:15:09;20.40;99.90
22532;DHT22;11432;46.924;7.114;2023-08-12T03:17:35;20.40;99.90
22532;DHT22;11432;46.924;7.114;2023-08-12T03:20:01;20.20;99.90
22532;DHT22;11432;46.924;7.114;2023-08-12T03:22:29;20.10;99.90
22532;DHT22;11432;46.924;7.114;2023-08-12T03:24:55;20.10;99.90
22532;DHT22;11432;46.924;7.114;2023-08-12T03:27:21;20.20;99.90
22532;DHT22;11432;46.924;7.114;2023-08-12T03:29:46;20.20;99.90
22532;DHT22;11432;46.924;7.114;2023-08-12T03:32:13;20.20;99.90
22532;DHT22;11432;46.924;7.114;2023-08-12T03:34:38;20.30;99.90
22532;DHT22;11432;46.924;7.114;2023-08-12T03:37:04;20.40;99.90
22532;DHT22;11432;46.924;7.114;2023-08-12T03:39:30;20.40;99.90
22532;DHT22;11432;46.924;7.114;2023-08-12T03:41:56;20.40;99.90
22532;DHT22;11432;46.924;7.114;2023-08-12T03:44:21;20.30;99.90
22532;DHT22;11432;46.924;7.114;2023-08-12T03:46:47;20.30;99.90
22532;DHT22;11432;46.924;7.114;2023-08-12T03:49:12;20.30;99.90
22532;DHT22;11432;46.924;7.114;2023-08-12T03:51:38;20.40;99.90
22532;DHT22;11432;46.924;7.114;2023-08-12T03:54:04;20.30;99.90
22532;DHT22;11432;46.924;7.114;2023-08-12T03:56:29;20.20;99.90
22532;DHT22;11432;46.924;7.114;2023-08-12T03:58:55;20.10;99.90
22532;DHT22;11432;46.924;7.114;2023-08-12T04:01:21;20.10;99.90
22532;DHT22;11432;46.924;7.114;2023-08-12T04:03:47;20.10;99.90
22532;DHT22;11432;46.924;7.114;2023-08-12T04:06:12;20.00;99.90
22532;DHT22;11432;46.924;7.114;2023-08-12T04:08:38;20.10;99.90
22532;DHT22;11432;46.924;7.114;2023-08-12T04:11:04;20.00;99.90
22532;DHT22;11432;46.924;7.114;2023-08-12T04:13:29;20.00;99.90
22532;DHT22;11432;46.924;7.114;2023-08-12T04:15:55;19.90;99.90
22532;DHT22;11432;46.924;7.114;2023-08-12T04:18:21;19.90;99.90
22532;DHT22;11432;46.924;7.114;2023-08-12T04:20:50;19.90;1.00
22532;DHT22;11432;46.924;7.114;2023-08-12T04:23:16;19.90;99.90
22532;DHT22;11432;46.924;7.114;2023-08-12T04:25:46;19.90;1.00
22532;DHT22;11432;46.924;7.114;2023-08-12T04:28:13;19.90;1.00
22532;DHT22;11432;46.924;7.114;2023-08-12T04:30:47;19.90;99.90
22532;DHT22;11432;46.924;7.114;2023-08-12T04:33:13;20.10;99.90
22532;DHT22;11432;46.924;7.114;2023-08-12T04:35:40;20.20;99.90
22532;DHT22;11432;46.924;7.114;2023-08-12T04:38:06;20.30;99.90
22532;DHT22;11432;46.924;7.114;2023-08-12T04:40:32;20.20;99.90
22532;DHT22;11432;46.924;7.114;2023-08-12T04:43:01;20.10;99.90
22532;DHT22;11432;46.924;7.114;2023-08-12T04:45:27;20.10;99.90
22532;DHT22;11432;46.924;7.114;2023-08-12T04:47:53;20.00;99.90
22532;DHT22;11432;46.924;7.114;2023-08-12T04:50:19;20.00;99.90
22532;DHT22;11432;46.924;7.114;2023-08-12T04:52:47;20.00;99.90
22532;DHT22;11432;46.924;7.114;2023-08-12T04:55:13;20.10;99.90
22532;DHT22;11432;46.924;7.114;2023-08-12T04:57:39;20.20;99.90
22532;DHT22;11432;46.924;7.114;2023-08-12T05:00:05;20.20;99.90
22532;DHT22;11432;46.924;7.114;2023-08-12T05:02:34;20.20;99.90
22532;DHT22;11432;46.924;7.114;2023-08-12T05:04:59;20.20;99.90
22532;DHT22;11432;46.924;7.114;2023-08-12T05:07:26;20.20;99.90
22532;DHT22;11432;46.924;7.114;2023-08-12T05:09:52;20.30;99.90
22532;DHT22;11432;46.924;7.114;2023-08-12T05:12:17;20.40;99.90
22532;DHT22;11432;46.924;7.114;2023-08-12T05:14:43;20.30;99.90
22532;DHT22;11432;46.924;7.114;2023-08-12T05:17:08;20.40;99.90
22532;DHT22;11432;46.924;7.114;2023-08-12T05:19:34;20.40;99.90
22532;DHT22;11432;46.924;7.114;2023-08-12T05:22:00;20.30;1.00
22532;DHT22;11432;46.924;7.114;2023-08-12T05:24:25;20.50;99.90
22532;DHT22;11432;46.924;7.114;2023-08-12T05:26:51;20.50;99.90
22532;DHT22;11432;46.924;7.114;2023-08-12T05:29:17;20.50;99.90
22532;DHT22;11432;46.924;7.114;2023-08-12T05:31:42;20.50;99.90
22532;DHT22;11432;46.924;7.114;2023-08-12T05:34:08;20.50;99.90
22532;DHT22;11432;46.924;7.114;2023-08-12T05:36:33;20.50;99.90
22532;DHT22;11432;46.924;7.114;2023-08-12T05:38:59;20.60;99.90
22532;DHT22;11432;46.924;7.114;2023-08-12T05:41:25;20.70;99.90
22532;DHT22;11432;46.924;7.114;2023-08-12T05:43:50;20.80;99.90
22532;DHT22;11432;46.924;7.114;2023-08-12T05:46:16;20.90;1.00
22532;DHT22;11432;46.924;7.114;2023-08-12T05:48:42;21.10;1.00
22532;DHT22;11432;46.924;7.114;2023-08-12T05:51:07;21.20;1.00
22532;DHT22;11432;46.924;7.114;2023-08-12T05:53:33;21.30;1.00
22532;DHT22;11432;46.924;7.114;2023-08-12T05:55:59;21.40;1.00
22532;DHT22;11432;46.924;7.114;2023-08-12T05:58:24;21.40;1.00
22532;DHT22;11432;46.924;7.114;2023-08-12T06:00:50;21.50;1.00
22532;DHT22;11432;46.924;7.114;2023-08-12T06:03:16;21.40;1.00
22532;DHT22;11432;46.924;7.114;2023-08-12T06:05:46;21.40;99.90
22532;DHT22;11432;46.924;7.114;2023-08-12T06:08:13;21.40;99.90
22532;DHT22;11432;46.924;7.114;2023-08-12T06:10:39;21.40;99.90
22532;DHT22;11432;46.924;7.114;2023-08-12T06:13:04;21.30;99.90
22532;DHT22;11432;46.924;7.114;2023-08-12T06:15:30;21.30;99.90
22532;DHT22;11432;46.924;7.114;2023-08-12T06:17:56;21.20;99.90
22532;DHT22;11432;46.924;7.114;2023-08-12T06:20:23;21.20;99.90
22532;DHT22;11432;46.924;7.114;2023-08-12T06:22:49;21.20;99.90
22532;DHT22;11432;46.924;7.114;2023-08-12T06:25:15;21.30;99.90
22532;DHT22;11432;46.924;7.114;2023-08-12T06:27:41;21.40;99.90
22532;DHT22;11432;46.924;7.114;2023-08-12T06:30:07;21.40;99.90
22532;DHT22;11432;46.924;7.114;2023-08-12T06:32:34;21.30;99.90
22532;DHT22;11432;46.924;7.114;2023-08-12T06:34:59;21.40;99.90
22532;DHT22;11432;46.924;7.114;2023-08-12T06:37:25;21.40;99.90
22532;DHT22;11432;46.924;7.114;2023-08-12T06:39:50;21.60;99.90
22532;DHT22;11432;46.924;7.114;2023-08-12T06:42:16;21.80;99.90
22532;DHT22;11432;46.924;7.114;2023-08-12T06:44:42;22.00;99.90
22532;DHT22;11432;46.924;7.114;2023-08-12T06:47:07;22.20;99.90
22532;DHT22;11432;46.924;7.114;2023-08-12T06:49:33;22.50;1.00
22532;DHT22;11432;46.924;7.114;2023-08-12T06:51:58;22.70;1.00
22532;DHT22;11432;46.924;7.114;2023-08-12T06:54:24;22.80;1.00
22532;DHT22;11432;46.924;7.114;2023-08-12T06:56:50;22.80;1.00
22532;DHT22;11432;46.924;7.114;2023-08-12T06:59:15;22.80;1.00
22532;DHT22;11432;46.924;7.114;2023-08-12T07:01:41;22.70;1.00
22532;DHT22;11432;46.924;7.114;2023-08-12T07:04:08;22.50;1.00
22532;DHT22;11432;46.924;7.114;2023-08-12T07:06:33;22.40;1.00
22532;DHT22;11432;46.924;7.114;2023-08-12T07:08:59;22.30;1.00
22532;DHT22;11432;46.924;7.114;2023-08-12T07:11:24;22.30;1.00
22532;DHT22;11432;46.924;7.114;2023-08-12T07:13:50;22.30;1.00
22532;DHT22;11432;46.924;7.114;2023-08-12T07:16:16;22.30;99.90
22532;DHT22;11432;46.924;7.114;2023-08-12T07:18:41;22.20;99.90
22532;DHT22;11432;46.924;7.114;2023-08-12T07:21:07;22.20;99.90
22532;DHT22;11432;46.924;7.114;2023-08-12T07:23:33;22.20;99.90
22532;DHT22;11432;46.924;7.114;2023-08-12T07:25:58;21.90;99.90
22532;DHT22;11432;46.924;7.114;2023-08-12T07:28:24;21.60;1.00
22532;DHT22;11432;46.924;7.114;2023-08-12T07:30:49;21.50;1.00
22532;DHT22;11432;46.924;7.114;2023-08-12T07:33:15;21.50;1.00
22532;DHT22;11432;46.924;7.114;2023-08-12T07:35:41;21.40;1.00
22532;DHT22;11432;46.924;7.114;2023-08-12T07:38:07;21.40;1.00
22532;DHT22;11432;46.924;7.114;2023-08-12T07:40:33;21.30;1.00
22532;DHT22;11432;46.924;7.114;2023-08-12T07:42:58;21.20;1.00
22532;DHT22;11432;46.924;7.114;2023-08-12T07:45:24;21.20;1.00
22532;DHT22;11432;46.924;7.114;2023-08-12T07:47:50;21.20;1.00
22532;DHT22;11432;46.924;7.114;2023-08-12T07:50:16;21.20;1.00
22532;DHT22;11432;46.924;7.114;2023-08-12T07:52:41;21.10;1.00
22532;DHT22;11432;46.924;7.114;2023-08-12T07:55:07;21.30;1.00
22532;DHT22;11432;46.924;7.114;2023-08-12T07:57:33;21.30;1.00
22532;DHT22;11432;46.924;7.114;2023-08-12T07:59:58;21.30;1.00
22532;DHT22;11432;46.924;7.114;2023-08-12T08:02:24;21.20;81.70
22532;DHT22;11432;46.924;7.114;2023-08-12T08:04:49;21.30;99.90
22532;DHT22;11432;46.924;7.114;2023-08-12T08:07:16;21.30;99.90
22532;DHT22;11432;46.924;7.114;2023-08-12T08:09:42;21.30;99.90
22532;DHT22;11432;46.924;7.114;2023-08-12T08:12:08;21.40;16.40
22532;DHT22;11432;46.924;7.114;2023-08-12T08:14:34;21.40;39.10
22532;DHT22;11432;46.924;7.114;2023-08-12T08:17:00;21.50;99.90
22532;DHT22;11432;46.924;7.114;2023-08-12T08:19:25;21.40;1.00
22532;DHT22;11432;46.924;7.114;2023-08-12T08:21:51;21.50;1.00
22532;DHT22;11432;46.924;7.114;2023-08-12T08:24:16;21.70;16.50
22532;DHT22;11432;46.924;7.114;2023-08-12T08:26:42;21.70;1.00
22532;DHT22;11432;46.924;7.114;2023-08-12T08:29:08;21.60;1.00
22532;DHT22;11432;46.924;7.114;2023-08-12T08:31:34;21.60;1.00
22532;DHT22;11432;46.924;7.114;2023-08-12T08:33:59;21.70;1.00
22532;DHT22;11432;46.924;7.114;2023-08-12T08:36:25;21.70;1.00
22532;DHT22;11432;46.924;7.114;2023-08-12T08:38:51;21.70;1.00
22532;DHT22;11432;46.924;7.114;2023-08-12T08:41:17;21.60;1.00
22532;DHT22;11432;46.924;7.114;2023-08-12T08:43:43;21.60;1.00
22532;DHT22;11432;46.924;7.114;2023-08-12T08:46:15;21.60;1.00
22532;DHT22;11432;46.924;7.114;2023-08-12T08:48:42;21.50;1.00
22532;DHT22;11432;46.924;7.114;2023-08-12T08:51:10;21.30;39.30
22532;DHT22;11432;46.924;7.114;2023-08-12T08:53:38;21.10;99.90
22532;DHT22;11432;46.924;7.114;2023-08-12T08:56:08;21.10;99.90
22532;DHT22;11432;46.924;7.114;2023-08-12T08:58:37;21.00;99.90
22532;DHT22;11432;46.924;7.114;2023-08-12T09:01:03;21.10;99.90
22532;DHT22;11432;46.924;7.114;2023-08-12T09:03:30;21.00;99.90
22532;DHT22;11432;46.924;7.114;2023-08-12T09:05:56;21.20;99.90
22532;DHT22;11432;46.924;7.114;2023-08-12T09:08:23;21.30;99.90
22532;DHT22;11432;46.924;7.114;2023-08-12T09:10:50;21.50;99.90
22532;DHT22;11432;46.924;7.114;2023-08-12T09:13:15;21.70;99.90
22532;DHT22;11432;46.924;7.114;2023-08-12T09:15:43;21.80;99.90
22532;DHT22;11432;46.924;7.114;2023-08-12T09:18:09;21.90;99.90
22532;DHT22;11432;46.924;7.114;2023-08-12T09:20:35;21.80;99.90
22532;DHT22;11432;46.924;7.114;2023-08-12T09:23:02;21.70;99.90
22532;DHT22;11432;46.924;7.114;2023-08-12T09:25:28;21.60;99.90
22532;DHT22;11432;46.924;7.114;2023-08-12T09:27:55;21.60;99.90
22532;DHT22;11432;46.924;7.114;2023-08-12T09:30:23;21.50;99.90
22532;DHT22;11432;46.924;7.114;2023-08-12T09:33:04;21.60;99.90
22532;DHT22;11432;46.924;7.114;2023-08-12T09:35:36;21.70;99.90
22532;DHT22;11432;46.924;7.114;2023-08-12T09:38:10;21.90;99.90
22532;DHT22;11432;46.924;7.114;2023-08-12T09:40:37;22.10;99.90
22532;DHT22;11432;46.924;7.114;2023-08-12T09:43:03;22.30;37.70
22532;DHT22;11432;46.924;7.114;2023-08-12T09:45:30;22.50;1.00
22532;DHT22;11432;46.924;7.114;2023-08-12T09:47:56;22.80;1.00
22532;DHT22;11432;46.924;7.114;2023-08-12T09:50:22;23.30;1.00
22532;DHT22;11432;46.924;7.114;2023-08-12T09:52:49;23.40;1.00
22532;DHT22;11432;46.924;7.114;2023-08-12T09:55:16;23.60;1.00
22532;DHT22;11432;46.924;7.114;2023-08-12T09:57:49;23.60;1.00
22532;DHT22;11432;46.924;7.114;2023-08-12T10:00:16;23.50;1.00
22532;DHT22;11432;46.924;7.114;2023-08-12T10:02:44;23.40;1.00
22532;DHT22;11432;46.924;7.114;2023-08-12T10:05:12;23.60;1.00
22532;DHT22;11432;46.924;7.114;2023-08-12T10:07:42;23.60;1.00
22532;DHT22;11432;46.924;7.114;2023-08-12T10:10:09;23.90;1.00
22532;DHT22;11432;46.924;7.114;2023-08-12T10:12:36;24.20;1.00
22532;DHT22;11432;46.924;7.114;2023-08-12T10:15:03;24.40;1.00
22532;DHT22;11432;46.924;7.114;2023-08-12T10:17:30;24.70;1.00
22532;DHT22;11432;46.924;7.114;2023-08-12T10:19:57;24.80;1.00
22532;DHT22;11432;46.924;7.114;2023-08-12T10:22:26;24.60;1.00
22532;DHT22;11432;46.924;7.114;2023-08-12T10:24:52;24.60;1.00
22532;DHT22;11432;46.924;7.114;2023-08-12T10:27:18;24.80;1.00
22532;DHT22;11432;46.924;7.114;2023-08-12T10:29:44;25.30;1.00
22532;DHT22;11432;46.924;7.114;2023-08-12T10:32:11;25.30;1.00
22532;DHT22;11432;46.924;7.114;2023-08-12T10:34:38;25.10;1.00
22532;DHT22;11432;46.924;7.114;2023-08-12T10:37:04;25.00;99.90
22532;DHT22;11432;46.924;7.114;2023-08-12T10:39:33;24.50;1.00
22532;DHT22;11432;46.924;7.114;2023-08-12T10:41:59;24.30;99.90
22532;DHT22;11432;46.924;7.114;2023-08-12T10:44:39;24.20;1.00
22532;DHT22;11432;46.924;7.114;2023-08-12T10:47:08;24.40;1.00
22532;DHT22;11432;46.924;7.114;2023-08-12T10:49:38;24.50;99.90
22532;DHT22;11432;46.924;7.114;2023-08-12T10:52:04;24.80;1.00
22532;DHT22;11432;46.924;7.114;2023-08-12T10:54:30;24.90;99.90
22532;DHT22;11432;46.924;7.114;2023-08-12T11:02:31;24.40;99.90
22532;DHT22;11432;46.924;7.114;2023-08-12T11:10:05;24.90;99.90
22532;DHT22;11432;46.924;7.114;2023-08-12T11:12:35;25.30;99.90
22532;DHT22;11432;46.924;7.114;2023-08-12T11:15:02;25.50;1.00
22532;DHT22;11432;46.924;7.114;2023-08-12T11:17:40;25.30;1.00
22532;DHT22;11432;46.924;7.114;2023-08-12T11:20:11;25.10;99.90
22532;DHT22;11432;46.924;7.114;2023-08-12T11:22:41;25.70;99.90
22532;DHT22;11432;46.924;7.114;2023-08-12T11:25:09;26.20;99.90
22532;DHT22;11432;46.924;7.114;2023-08-12T11:27:40;26.60;99.90
22532;DHT22;11432;46.924;7.114;2023-08-12T11:30:06;26.80;1.00
22532;DHT22;11432;46.924;7.114;2023-08-12T11:32:32;26.80;1.00
22532;DHT22;11432;46.924;7.114;2023-08-12T11:34:58;26.50;1.00
22532;DHT22;11432;46.924;7.114;2023-08-12T11:37:24;26.10;1.00
22532;DHT22;11432;46.924;7.114;2023-08-12T11:39:52;26.30;1.00
22532;DHT22;11432;46.924;7.114;2023-08-12T11:42:17;26.20;99.90
22532;DHT22;11432;46.924;7.114;2023-08-12T11:44:43;26.50;1.00
22532;DHT22;11432;46.924;7.114;2023-08-12T11:47:09;26.70;99.90
22532;DHT22;11432;46.924;7.114;2023-08-12T11:49:35;27.20;1.00
22532;DHT22;11432;46.924;7.114;2023-08-12T11:52:00;27.70;1.00
22532;DHT22;11432;46.924;7.114;2023-08-12T11:54:26;28.20;1.00
22532;DHT22;11432;46.924;7.114;2023-08-12T11:56:52;28.00;1.00
22532;DHT22;11432;46.924;7.114;2023-08-12T11:59:18;27.80;1.00
22532;DHT22;11432;46.924;7.114;2023-08-12T12:01:48;27.70;1.00
22532;DHT22;11432;46.924;7.114;2023-08-12T12:04:14;27.30;1.00
22532;DHT22;11432;46.924;7.114;2023-08-12T12:06:40;27.50;1.00
22532;DHT22;11432;46.924;7.114;2023-08-12T12:09:07;27.60;1.00
22532;DHT22;11432;46.924;7.114;2023-08-12T12:11:35;27.80;1.00
22532;DHT22;11432;46.924;7.114;2023-08-12T12:14:03;28.10;1.00
22532;DHT22;11432;46.924;7.114;2023-08-12T12:16:45;28.70;1.00
22532;DHT22;11432;46.924;7.114;2023-08-12T12:19:18;28.70;1.00
22532;DHT22;11432;46.924;7.114;2023-08-12T12:21:49;28.90;1.00
22532;DHT22;11432;46.924;7.114;2023-08-12T12:24:15;28.60;1.00
22532;DHT22;11432;46.924;7.114;2023-08-12T12:26:41;28.40;1.00
22532;DHT22;11432;46.924;7.114;2023-08-12T12:29:07;28.20;1.00
22532;DHT22;11432;46.924;7.114;2023-08-12T12:31:35;28.10;1.00
22532;DHT22;11432;46.924;7.114;2023-08-12T12:34:02;28.00;1.00
22532;DHT22;11432;46.924;7.114;2023-08-12T12:36:29;27.80;1.00
22532;DHT22;11432;46.924;7.114;2023-08-12T12:38:54;27.60;1.00
22532;DHT22;11432;46.924;7.114;2023-08-12T12:41:20;27.50;1.00
22532;DHT22;11432;46.924;7.114;2023-08-12T12:43:46;27.50;1.00
22532;DHT22;11432;46.924;7.114;2023-08-12T12:46:11;27.50;1.00
22532;DHT22;11432;46.924;7.114;2023-08-12T12:48:37;27.60;1.00
22532;DHT22;11432;46.924;7.114;2023-08-12T12:51:03;27.80;1.00
22532;DHT22;11432;46.924;7.114;2023-08-12T12:53:28;27.80;99.90
22532;DHT22;11432;46.924;7.114;2023-08-12T12:55:54;27.80;99.90
22532;DHT22;11432;46.924;7.114;2023-08-12T12:58:19;27.90;99.90
22532;DHT22;11432;46.924;7.114;2023-08-12T13:00:47;28.00;99.90
22532;DHT22;11432;46.924;7.114;2023-08-12T13:03:13;28.30;1.00
22532;DHT22;11432;46.924;7.114;2023-08-12T13:05:38;29.10;1.00
22532;DHT22;11432;46.924;7.114;2023-08-12T13:08:04;29.60;1.00
22532;DHT22;11432;46.924;7.114;2023-08-12T13:10:30;30.20;1.00
22532;DHT22;11432;46.924;7.114;2023-08-12T13:12:56;30.80;1.00
22532;DHT22;11432;46.924;7.114;2023-08-12T13:15:22;30.40;1.00
22532;DHT22;11432;46.924;7.114;2023-08-12T13:17:49;30.20;1.00
22532;DHT22;11432;46.924;7.114;2023-08-12T13:20:15;30.90;1.00
22532;DHT22;11432;46.924;7.114;2023-08-12T13:22:40;32.10;1.00
22532;DHT22;11432;46.924;7.114;2023-08-12T13:25:06;33.30;1.00
22532;DHT22;11432;46.924;7.114;2023-08-12T13:27:32;32.60;1.00
22532;DHT22;11432;46.924;7.114;2023-08-12T13:29:58;32.00;1.00
22532;DHT22;11432;46.924;7.114;2023-08-12T13:32:23;32.40;1.00
22532;DHT22;11432;46.924;7.114;2023-08-12T13:34:49;32.80;1.00
22532;DHT22;11432;46.924;7.114;2023-08-12T13:37:14;33.70;1.00
22532;DHT22;11432;46.924;7.114;2023-08-12T13:39:40;33.90;1.00
22532;DHT22;11432;46.924;7.114;2023-08-12T13:42:06;33.30;1.00
22532;DHT22;11432;46.924;7.114;2023-08-12T13:44:31;32.60;1.00
22532;DHT22;11432;46.924;7.114;2023-08-12T13:46:57;32.10;1.00
22532;DHT22;11432;46.924;7.114;2023-08-12T13:49:22;32.30;1.00
22532;DHT22;11432;46.924;7.114;2023-08-12T13:51:48;32.90;1.00
22532;DHT22;11432;46.924;7.114;2023-08-12T13:54:13;33.50;1.00
22532;DHT22;11432;46.924;7.114;2023-08-12T13:56:39;33.90;1.00
22532;DHT22;11432;46.924;7.114;2023-08-12T13:59:05;34.20;1.00
22532;DHT22;11432;46.924;7.114;2023-08-12T14:01:30;34.30;1.00
22532;DHT22;11432;46.924;7.114;2023-08-12T14:03:56;34.60;1.00
22532;DHT22;11432;46.924;7.114;2023-08-12T14:06:21;34.10;1.00
22532;DHT22;11432;46.924;7.114;2023-08-12T14:08:47;33.20;1.00
22532;DHT22;11432;46.924;7.114;2023-08-12T14:11:12;32.00;1.00
22532;DHT22;11432;46.924;7.114;2023-08-12T14:13:38;31.20;1.00
22532;DHT22;11432;46.924;7.114;2023-08-12T14:16:04;30.80;1.00
22532;DHT22;11432;46.924;7.114;2023-08-12T14:18:29;30.40;1.00
22532;DHT22;11432;46.924;7.114;2023-08-12T14:20:55;30.20;1.00
22532;DHT22;11432;46.924;7.114;2023-08-12T14:23:20;30.00;1.00
22532;DHT22;11432;46.924;7.114;2023-08-12T14:25:46;29.80;1.00
22532;DHT22;11432;46.924;7.114;2023-08-12T14:28:11;29.70;1.00
22532;DHT22;11432;46.924;7.114;2023-08-12T14:30:37;29.50;1.00
22532;DHT22;11432;46.924;7.114;2023-08-12T14:33:03;29.30;1.00
22532;DHT22;11432;46.924;7.114;2023-08-12T14:35:28;29.10;1.00
22532;DHT22;11432;46.924;7.114;2023-08-12T14:37:54;28.50;1.00
22532;DHT22;11432;46.924;7.114;2023-08-12T14:40:20;29.40;1.00
22532;DHT22;11432;46.924;7.114;2023-08-12T14:42:45;29.80;1.00
22532;DHT22;11432;46.924;7.114;2023-08-12T14:45:11;30.40;1.00
22532;DHT22;11432;46.924;7.114;2023-08-12T14:47:36;29.80;1.00
22532;DHT22;11432;46.924;7.114;2023-08-12T14:50:02;28.40;1.00
22532;DHT22;11432;46.924;7.114;2023-08-12T14:52:29;28.20;1.00
22532;DHT22;11432;46.924;7.114;2023-08-12T14:54:55;28.20;1.00
22532;DHT22;11432;46.924;7.114;2023-08-12T14:57:21;28.10;1.00
22532;DHT22;11432;46.924;7.114;2023-08-12T14:59:46;28.00;1.00
22532;DHT22;11432;46.924;7.114;2023-08-12T15:02:16;28.60;1.00
22532;DHT22;11432;46.924;7.114;2023-08-12T15:04:42;29.50;1.00
22532;DHT22;11432;46.924;7.114;2023-08-12T15:07:08;29.80;1.00
22532;DHT22;11432;46.924;7.114;2023-08-12T15:09:33;29.60;1.00
22532;DHT22;11432;46.924;7.114;2023-08-12T15:11:59;29.40;1.00
22532;DHT22;11432;46.924;7.114;2023-08-12T15:14:24;29.40;1.00
22532;DHT22;11432;46.924;7.114;2023-08-12T15:16:51;29.20;1.00
22532;DHT22;11432;46.924;7.114;2023-08-12T15:19:16;29.00;1.00
22532;DHT22;11432;46.924;7.114;2023-08-12T15:21:42;29.40;1.00
22532;DHT22;11432;46.924;7.114;2023-08-12T15:24:08;29.80;1.00
22532;DHT22;11432;46.924;7.114;2023-08-12T15:26:33;29.80;1.00
22532;DHT22;11432;46.924;7.114;2023-08-12T15:28:59;30.30;1.00
22532;DHT22;11432;46.924;7.114;2023-08-12T15:31:24;30.90;1.00
22532;DHT22;11432;46.924;7.114;2023-08-12T15:33:50;31.20;1.00
22532;DHT22;11432;46.924;7.114;2023-08-12T15:36:16;31.10;1.00
22532;DHT22;11432;46.924;7.114;2023-08-12T15:38:41;30.50;1.00
22532;DHT22;11432;46.924;7.114;2023-08-12T15:41:14;29.90;1.00
22532;DHT22;11432;46.924;7.114;2023-08-12T15:43:40;29.50;1.00
22532;DHT22;11432;46.924;7.114;2023-08-12T15:46:07;29.20;1.00